Time;durP1;ratioP1;P1;durP2;ratioP2;P2;SDS_P1;SDS_P2;PMS_P1;PMS_P2;Temp;Humidity;BMP_temperature;BMP_pressure;BME280_temperature;BME280_humidity;BME280_pressure;Samples;Min_cycle;Max_cycle;Signal;HPM_P1;HPM_P2
2022/06/19 00:00:14;;;;;;;7.45;2.20;;;;;;;18.50;68.08;100880.16;5095565;28;20105;-37
2022/06/19 00:02:42;;;;;;;6.45;1.67;;;;;;;18.80;67.25;100894.78;5095730;28;20027;-37
2022/06/19 00:05:08;;;;;;;8.40;2.17;;;;;;;18.45;67.59;100893.88;5096337;28;20024;-42
2022/06/19 00:07:34;;;;;;;11.38;2.50;;;;;;;18.68;67.28;100887.72;5095627;28;20462;-37
2022/06/19 00:10:00;;;;;;;6.07;1.80;;;;;;;18.53;67.23;100866.69;5095962;28;20449;-37
2022/06/19 00:12:25;;;;;;;6.68;1.90;;;;;;;18.63;67.32;100874.03;5094670;28;20040;-37
2022/06/19 00:14:51;;;;;;;;;;;;;;;18.65;66.30;100868.28;5096085;28;20032;-37
2022/06/19 00:17:16;;;;;;;7.88;2.25;;;;;;;18.47;66.40;100865.09;5095256;28;19908;-37
2022/06/19 00:19:42;;;;;;;11.45;2.15;;;;;;;18.26;66.35;100867.13;5095570;28;20028;-37
2022/06/19 00:22:07;;;;;;;;;;;;;;;18.53;65.98;100872.16;5095961;28;20024;-37
2022/06/19 00:24:33;;;;;;;8.18;1.88;;;;;;;18.38;66.38;100882.41;5095151;28;19912;-36
2022/06/19 00:26:58;;;;;;;;;;;;;;;18.44;66.09;100873.06;5095934;28;20027;-36
2022/06/19 00:29:23;;;;;;;8.38;1.77;;;;;;;18.09;66.15;100885.81;5096133;28;19919;-36
2022/06/19 00:31:49;;;;;;;7.70;2.10;;;;;;;18.06;66.38;100896.53;5095160;28;20588;-36
2022/06/19 00:34:14;;;;;;;6.32;1.88;;;;;;;18.15;66.12;100908.50;5095325;28;20039;-37
2022/06/19 00:36:40;;;;;;;;;;;;;;;18.31;65.06;100903.81;5095725;28;20024;-37
2022/06/19 00:39:05;;;;;;;8.07;1.75;;;;;;;18.16;65.17;100904.69;5095266;28;19916;-37
2022/06/19 00:41:32;;;;;;;;;;;;;;;18.24;64.37;100895.88;5095355;28;20028;-37
2022/06/19 00:43:59;;;;;;;7.35;2.38;;;;;;;17.99;64.75;100894.06;5095236;28;19916;-37
2022/06/19 00:46:48;;;;;;;5.88;1.80;;;;;;;17.70;64.14;100888.38;5095396;28;20122;-37
2022/06/19 00:49:17;;;;;;;8.25;1.75;;;;;;;17.63;64.40;100899.63;5095318;28;20020;-37
2022/06/19 00:51:43;;;;;;;8.57;2.30;;;;;;;17.58;63.84;100885.13;5094751;28;20032;-37
2022/06/19 00:54:13;;;;;;;8.07;2.28;;;;;;;17.37;64.15;100890.66;5094868;28;20101;-37
2022/06/19 00:56:39;;;;;;;7.80;1.90;;;;;;;17.35;64.31;100881.06;5093295;28;20020;-37
2022/06/19 00:59:07;;;;;;;8.50;2.10;;;;;;;17.33;63.56;100884.09;5095231;28;20059;-37
2022/06/19 01:01:32;;;;;;;5.63;1.98;;;;;;;17.32;64.08;100893.34;5094373;28;20040;-38
2022/06/19 01:04:20;;;;;;;9.45;2.20;;;;;;;17.32;63.44;100885.16;5095404;28;20028;-37
2022/06/19 01:06:45;;;;;;;9.38;2.10;;;;;;;17.35;63.71;100870.13;5094933;28;20024;-38
2022/06/19 01:09:10;;;;;;;;;;;;;;;17.60;62.96;100880.19;5095251;28;20082;-37
2022/06/19 01:11:40;;;;;;;7.83;2.00;;;;;;;17.28;63.30;100883.28;5094751;28;20002;-37
2022/06/19 01:14:11;;;;;;;8.50;1.75;;;;;;;17.19;64.10;100892.00;5095101;28;20323;-37
2022/06/19 01:16:37;;;;;;;8.25;2.00;;;;;;;17.35;63.37;100930.25;5095005;28;20028;-37
2022/06/19 01:19:06;;;;;;;8.75;2.13;;;;;;;17.30;63.57;101013.06;5094374;28;20032;-37
2022/06/19 01:21:41;;;;;;;6.40;1.95;;;;;;;17.44;62.89;101082.53;5094740;28;20060;-37
2022/06/19 01:24:22;;;;;;;8.13;2.15;;;;;;;17.36;62.15;101016.63;5094619;28;20097;-37
2022/06/19 01:26:52;;;;;;;8.40;2.10;;;;;;;17.33;62.81;100940.66;5094295;28;20067;-37
2022/06/19 01:29:19;;;;;;;6.95;2.08;;;;;;;17.02;61.92;100975.31;5093777;28;20465;-38
2022/06/19 01:31:52;;;;;;;8.07;2.03;;;;;;;17.02;61.83;101021.75;5094526;28;20209;-37
2022/06/19 01:34:27;;;;;;;9.07;2.67;;;;;;;16.95;61.28;101013.84;5094126;28;20080;-36
2022/06/19 01:36:54;;;;;;;11.18;2.72;;;;;;;16.69;60.62;100959.13;5094360;28;20117;-37
2022/06/19 01:39:22;;;;;;;9.75;2.65;;;;;;;16.76;62.07;100963.53;5094558;28;20513;-37
2022/06/19 01:41:48;;;;;;;10.95;2.85;;;;;;;16.57;60.53;101002.19;5094087;28;20107;-37
2022/06/19 01:44:13;;;;;;;;;;;;;;;16.81;61.11;101024.44;5094047;28;20509;-37
2022/06/19 01:46:38;;;;;;;10.40;2.60;;;;;;;16.72;60.68;100999.56;5093652;28;19915;-37
2022/06/19 01:49:03;;;;;;;;;;;;;;;16.92;60.57;101019.81;5093737;28;20270;-37
2022/06/19 01:51:29;;;;;;;11.43;2.30;;;;;;;16.53;60.17;101012.00;5094425;28;20272;-37
2022/06/19 01:53:57;;;;;;;;;;;;;;;16.43;59.41;101001.03;5095018;28;20281;-37
2022/06/19 01:56:24;;;;;;;8.20;1.90;;;;;;;16.10;60.16;101000.31;5094611;28;19908;-37
2022/06/19 01:58:53;;;;;;;10.55;2.63;;;;;;;16.17;60.19;101011.84;5094071;28;20120;-37
2022/06/19 02:01:18;;;;;;;6.82;1.98;;;;;;;16.07;58.76;100998.13;5093351;28;20024;-37
2022/06/19 02:03:46;;;;;;;;;;;;;;;16.15;59.46;101019.47;5094300;28;20032;-37
2022/06/19 02:06:12;;;;;;;;;;;;;;;16.28;59.19;101020.06;5094350;28;19938;-36
2022/06/19 02:08:39;;;;;;;8.05;2.05;;;;;;;16.17;59.68;101016.47;5093572;28;19924;-37
2022/06/19 02:11:06;;;;;;;8.90;2.22;;;;;;;16.09;57.99;101009.59;5093822;28;20032;-37
2022/06/19 02:13:34;;;;;;;9.95;2.55;;;;;;;16.18;57.94;101016.19;5093842;28;20518;-36
2022/06/19 02:16:04;;;;;;;8.65;2.17;;;;;;;16.05;57.06;101019.38;5094145;28;20055;-37
2022/06/19 02:18:34;;;;;;;9.73;2.25;;;;;;;16.06;56.97;100996.50;5092978;28;20376;-36
2022/06/19 02:21:00;;;;;;;7.25;2.00;;;;;;;15.99;57.48;101004.09;5093312;28;20047;-37
2022/06/19 02:23:28;;;;;;;;;;;;;;;16.29;57.98;101006.16;5093798;28;20027;-36
2022/06/19 02:25:54;;;;;;;10.63;2.17;;;;;;;16.18;57.48;101020.84;5093487;28;20390;-36
2022/06/19 02:28:20;;;;;;;;;;;;;;;16.25;57.69;100996.88;5093595;28;20523;-36
2022/06/19 02:30:48;;;;;;;8.75;2.30;;;;;;;16.17;57.18;100998.19;5093218;28;19958;-37
2022/06/19 02:33:16;;;;;;;7.30;1.90;;;;;;;16.19;55.62;101019.75;5093118;28;20040;-36
2022/06/19 02:35:42;;;;;;;6.93;1.63;;;;;;;16.28;55.79;101020.06;5093280;28;20055;-37
2022/06/19 02:38:07;;;;;;;;;;;;;;;16.37;55.67;101032.97;5092407;28;20434;-37
2022/06/19 02:40:48;;;;;;;6.07;1.60;;;;;;;16.21;54.98;101021.16;5093487;28;20007;-36
2022/06/19 02:43:18;;;;;;;6.20;1.48;;;;;;;16.33;54.64;101020.09;5092772;28;20043;-36
2022/06/19 02:45:43;;;;;;;6.60;2.25;;;;;;;16.44;54.36;101029.97;5092823;28;20028;-37
2022/06/19 02:48:19;;;;;;;;;;;;;;;16.54;55.13;101013.66;5093471;28;20036;-37
2022/06/19 02:50:44;;;;;;;7.93;2.00;;;;;;;16.27;55.02;101015.72;5092886;28;19908;-37
2022/06/19 02:53:10;;;;;;;;;;;;;;;16.27;55.28;100996.63;5093129;28;20035;-37
2022/06/19 02:55:36;;;;;;;9.90;2.33;;;;;;;15.92;55.88;101007.06;5092935;28;19908;-36
2022/06/19 02:58:01;;;;;;;;;;;;;;;16.00;56.06;101013.91;5092850;28;20071;-36
2022/06/19 03:00:28;;;;;;;8.23;1.20;;;;;;;15.91;56.13;101043.59;5095465;28;19912;-37
2022/06/19 03:02:58;;;;;;;6.53;1.73;;;;;;;16.07;56.93;101134.53;5097289;28;20266;-37
2022/06/19 03:05:27;;;;;;;6.55;1.75;;;;;;;16.09;55.50;101148.72;5097588;28;20514;-37
2022/06/19 03:07:52;;;;;;;9.95;2.17;;;;;;;15.93;55.79;101100.59;5097162;28;20039;-36
2022/06/19 03:10:18;;;;;;;;;;;;;;;16.08;55.29;101094.44;5097051;28;20419;-36
2022/06/19 03:12:44;;;;;;;6.72;1.95;;;;;;;15.86;56.86;101039.97;5096817;28;19912;-36
2022/06/19 03:15:09;;;;;;;;;;;;;;;15.99;55.21;101053.19;5097420;28;20032;-37
2022/06/19 03:17:35;;;;;;;5.38;1.50;;;;;;;15.78;55.00;101056.84;5096967;28;20252;-37
2022/06/19 03:20:00;;;;;;;;;;;;;;;15.86;54.92;101035.38;5097693;28;20146;-36
2022/06/19 03:22:25;;;;;;;7.33;1.20;;;;;;;15.64;54.69;101015.56;5096878;28;19912;-37
2022/06/19 03:24:51;;;;;;;;;;;;;;;15.84;54.85;101009.44;5097348;28;20273;-36
2022/06/19 03:27:16;;;;;;;5.93;1.50;;;;;;;15.68;53.94;101003.88;5096295;28;19908;-37
2022/06/19 03:29:41;;;;;;;;;;;;;;;15.68;54.15;101017.50;5097467;28;20035;-37
2022/06/19 03:32:12;;;;;;;5.85;1.50;;;;;;;15.57;54.20;101050.38;5096565;28;19908;-37
2022/06/19 03:34:38;;;;;;;6.07;1.38;;;;;;;15.49;54.21;101048.94;5096245;28;20028;-36
2022/06/19 03:37:03;;;;;;;;;;;;;;;15.62;54.84;101026.69;5097655;28;20039;-36
2022/06/19 03:39:28;;;;;;;6.47;1.00;;;;;;;15.58;54.14;100992.88;5096051;28;19931;-39
2022/06/19 03:41:53;;;;;;;;;;;;;;;15.55;54.48;100974.28;5096747;28;20063;-36
2022/06/19 03:44:19;;;;;;;5.90;1.57;;;;;;;15.55;54.24;100979.75;5096294;28;19966;-36
2022/06/19 03:46:44;;;;;;;4.17;1.07;;;;;;;15.37;53.65;100961.06;5096475;28;20266;-36
2022/06/19 03:49:09;;;;;;;6.63;1.25;;;;;;;15.36;53.92;100935.72;5096769;28;20284;-37
2022/06/19 03:51:35;;;;;;;7.78;1.25;;;;;;;15.33;53.77;100960.78;5096224;28;20081;-36
2022/06/19 03:54:00;;;;;;;;;;;;;;;15.52;54.07;101013.00;5096566;28;20077;-36
2022/06/19 03:56:29;;;;;;;5.75;1.45;;;;;;;15.49;53.65;101078.09;5095880;28;19912;-36
2022/06/19 03:58:55;;;;;;;3.67;1.05;;;;;;;15.54;53.53;101075.41;5096373;28;20066;-36
2022/06/19 04:01:22;;;;;;;;;;;;;;;15.63;52.86;101039.28;5096922;28;20126;-36
2022/06/19 04:03:49;;;;;;;5.25;1.30;;;;;;;15.64;53.14;101051.81;5096006;28;19958;-36
2022/06/19 04:06:17;;;;;;;6.22;1.20;;;;;;;15.51;52.88;101014.03;5096627;28;20119;-36
2022/06/19 04:08:44;;;;;;;4.20;1.30;;;;;;;15.46;51.69;100967.69;5095458;28;20067;-36
2022/06/19 04:11:10;;;;;;;5.22;1.17;;;;;;;15.48;52.38;100954.63;5095206;28;20074;-37
2022/06/19 04:13:36;;;;;;;;;;;;;;;15.63;52.19;100954.78;5095884;28;20073;-36
2022/06/19 04:16:03;;;;;;;4.30;1.10;;;;;;;15.38;52.68;100927.31;5096202;28;19919;-36
2022/06/19 04:18:32;;;;;;;4.45;1.10;;;;;;;15.19;53.29;100903.19;5095866;28;20028;-36
2022/06/19 04:20:58;;;;;;;6.60;1.38;;;;;;;14.96;54.93;100884.47;5095447;28;20038;-36
2022/06/19 04:23:25;;;;;;;8.23;1.30;;;;;;;14.92;56.37;100859.63;5096227;28;20424;-36
2022/06/19 04:25:52;;;;;;;6.43;1.67;;;;;;;14.88;56.83;100833.19;5095717;28;20050;-36
2022/06/19 04:28:19;;;;;;;4.97;1.40;;;;;;;14.87;57.04;100837.00;5095611;28;20039;-36
2022/06/19 04:30:46;;;;;;;8.13;1.60;;;;;;;14.91;57.95;100825.34;5095873;28;20097;-36
2022/06/19 04:33:16;;;;;;;8.63;1.60;;;;;;;15.04;58.33;100818.63;5095282;28;20036;-36
2022/06/19 04:35:42;;;;;;;7.22;1.40;;;;;;;15.00;58.25;100835.75;5096003;28;20032;-36
2022/06/19 04:38:08;;;;;;;5.50;1.33;;;;;;;15.02;58.75;100844.47;5094920;28;20533;-36
2022/06/19 04:40:34;;;;;;;;;;;;;;;15.21;58.79;100840.25;5095323;28;20024;-36
2022/06/19 04:42:59;;;;;;;6.97;1.27;;;;;;;14.99;58.74;100818.59;5095905;28;19916;-36
2022/06/19 04:45:24;;;;;;;;;;;;;;;15.07;58.71;100829.00;5095315;28;20418;-36
2022/06/19 04:47:50;;;;;;;9.03;1.60;;;;;;;15.17;59.28;100836.41;5095173;28;19912;-36
2022/06/19 04:50:15;;;;;;;;;;;;;;;15.29;59.53;100838.97;5095422;28;20031;-36
2022/06/19 04:52:41;;;;;;;7.45;1.52;;;;;;;15.20;59.74;100798.59;5094722;28;19916;-37
2022/06/19 04:55:07;;;;;;;5.05;1.40;;;;;;;15.35;59.94;100756.16;5095172;28;20032;-36
2022/06/19 04:57:32;;;;;;;8.13;1.55;;;;;;;15.24;59.91;100755.31;5095214;28;20044;-36
2022/06/19 04:59:58;;;;;;;8.98;1.77;;;;;;;15.36;59.70;100783.13;5095132;28;20028;-36
2022/06/19 05:02:23;;;;;;;8.23;1.50;;;;;;;15.15;59.39;100790.38;5094784;28;20446;-36
2022/06/19 05:04:49;;;;;;;;;;;;;;;15.19;59.62;100813.28;5094916;28;20074;-36
2022/06/19 05:07:15;;;;;;;6.20;1.60;;;;;;;15.39;59.99;100819.94;5094412;28;20017;-36
2022/06/19 05:09:40;;;;;;;;;;;;;;;15.54;59.46;100836.38;5094806;28;20103;-36
2022/06/19 05:12:05;;;;;;;8.27;1.77;;;;;;;15.44;59.10;100831.69;5094505;28;19934;-37
2022/06/19 05:14:30;;;;;;;;;;;;;;;15.51;59.12;100831.44;5094848;28;20073;-37
2022/06/19 05:16:56;;;;;;;5.97;1.83;;;;;;;15.33;58.78;100840.09;5095251;28;19908;-37
2022/06/19 05:19:21;;;;;;;7.40;1.52;;;;;;;15.52;59.57;100851.34;5094160;28;20270;-36
2022/06/19 05:21:46;;;;;;;;;;;;;;;15.63;58.54;100892.06;5095553;28;20448;-36
2022/06/19 05:24:12;;;;;;;3.43;1.27;;;;;;;15.74;58.59;100884.78;5093157;28;20392;-36
2022/06/19 05:26:37;;;;;;;;;;;;;;;16.04;58.55;100891.47;5094976;28;20115;-36
2022/06/19 05:29:03;;;;;;;6.85;1.65;;;;;;;16.14;58.14;100888.78;5093950;28;20277;-36
2022/06/19 05:31:29;;;;;;;6.45;1.67;;;;;;;16.31;56.84;100904.94;5094327;28;20070;-37
2022/06/19 05:33:55;;;;;;;;;;;;;;;16.39;57.60;100948.91;5094580;28;20052;-37
2022/06/19 05:36:21;;;;;;;8.20;1.52;;;;;;;16.46;57.50;100963.13;5094493;28;19916;-36
2022/06/19 05:38:47;;;;;;;6.90;1.50;;;;;;;16.58;57.61;100967.53;5093856;28;20024;-36
2022/06/19 05:41:13;;;;;;;7.65;1.50;;;;;;;16.74;56.93;100991.13;5094187;28;20329;-37
2022/06/19 05:43:38;;;;;;;5.07;1.55;;;;;;;16.83;56.45;100983.19;5093823;28;20028;-36
2022/06/19 05:46:05;;;;;;;;;;;;;;;17.13;55.87;100986.00;5094180;28;20102;-37
2022/06/19 05:48:32;;;;;;;6.88;1.63;;;;;;;17.14;55.53;100963.06;5093949;28;19930;-37
2022/06/19 05:51:03;;;;;;;6.50;1.70;;;;;;;17.27;54.58;100971.78;5094425;28;20032;-36
2022/06/19 05:53:31;;;;;;;4.95;1.33;;;;;;;17.33;55.12;100977.00;5094430;28;20430;-36
2022/06/19 05:55:56;;;;;;;6.78;1.50;;;;;;;17.36;55.52;100987.38;5093878;28;20402;-36
2022/06/19 05:58:21;;;;;;;;;;;;;;;17.51;55.27;101003.78;5094258;28;20044;-37
2022/06/19 06:00:47;;;;;;;6.55;1.77;;;;;;;17.25;55.16;100993.94;5093378;28;19911;-37
2022/06/19 06:03:13;;;;;;;;;;;;;;;17.45;55.71;100996.69;5093895;28;20072;-36
2022/06/19 06:05:39;;;;;;;7.18;1.98;;;;;;;17.29;54.95;101007.88;5093995;28;19914;-36
2022/06/19 06:08:05;;;;;;;;;;;;;;;17.48;55.75;101039.06;5094396;28;20032;-36
2022/06/19 06:10:30;;;;;;;6.53;1.67;;;;;;;17.34;55.54;101059.81;5093605;28;19908;-36
2022/06/19 06:12:56;;;;;;;;;;;;;;;17.50;55.76;101062.28;5094725;28;20020;-37
2022/06/19 06:15:21;;;;;;;5.53;1.30;;;;;;;17.36;55.73;101050.25;5094498;28;20375;-36
2022/06/19 06:17:46;;;;;;;;;;;;;;;17.50;56.04;101065.03;5094236;28;20408;-36
2022/06/19 06:20:12;;;;;;;5.63;1.50;;;;;;;17.34;55.76;101048.88;5093590;28;19908;-37
2022/06/19 06:22:37;;;;;;;;;;;;;;;17.62;56.30;101073.00;5094380;28;20032;-37
2022/06/19 06:25:03;;;;;;;6.25;1.45;;;;;;;17.50;56.22;101106.03;5093611;28;20291;-37
2022/06/19 06:27:28;;;;;;;;;;;;;;;17.73;55.51;101129.34;5094592;28;20032;-37
2022/06/19 06:29:54;;;;;;;5.13;1.30;;;;;;;17.41;54.90;101139.63;5093258;28;19934;-37
2022/06/19 06:32:19;;;;;;;;;;;;;;;17.50;55.36;101162.63;5093951;28;20302;-37
2022/06/19 06:34:44;;;;;;;4.57;1.27;;;;;;;17.30;54.83;101168.88;5093230;28;19918;-37
2022/06/19 06:37:09;;;;;;;;;;;;;;;17.47;55.23;101168.63;5094461;28;20217;-37
2022/06/19 06:39:35;;;;;;;10.07;2.17;;;;;;;17.34;53.66;101178.19;5093895;28;19912;-37
2022/06/19 06:42:00;;;;;;;;;;;;;;;17.44;54.84;101210.19;5093537;28;20445;-37
2022/06/19 06:44:25;;;;;;;5.65;1.48;;;;;;;17.32;52.84;101269.72;5093560;28;20280;-37
2022/06/19 06:46:51;;;;;;;;;;;;;;;17.40;53.30;101291.91;5094070;28;20105;-37
2022/06/19 06:49:16;;;;;;;7.43;1.50;;;;;;;17.16;55.11;101247.78;5092748;28;19912;-37
2022/06/19 06:51:41;;;;;;;;;;;;;;;17.33;54.98;101272.22;5093969;28;20270;-37
2022/06/19 06:54:07;;;;;;;4.37;1.60;;;;;;;17.01;59.21;101269.56;5092903;28;19912;-36
2022/06/19 06:56:33;;;;;;;;;;;;;;;17.25;56.35;101270.78;5093711;28;20034;-37
2022/06/19 06:58:59;;;;;;;7.00;1.40;;;;;;;16.91;57.47;101272.22;5092585;28;19950;-37
2022/06/19 07:01:24;;;;;;;;;;;;;;;17.02;57.90;101268.47;5093251;28;20024;-36
2022/06/19 07:03:54;;;;;;;5.20;1.48;;;;;;;16.67;61.02;101264.34;5092771;28;19919;-36
2022/06/19 07:06:21;;;;;;;6.50;1.70;;;;;;;16.64;61.82;101275.81;5092911;28;20028;-36
2022/06/19 07:08:46;;;;;;;5.47;1.30;;;;;;;16.58;62.96;101255.00;5093269;28;20024;-36
2022/06/19 07:11:17;;;;;;;;;;;;;;;16.72;60.94;101267.16;5094095;28;20429;-38
2022/06/19 07:13:43;;;;;;;6.22;1.50;;;;;;;16.54;63.38;101261.25;5093260;28;19919;-36
2022/06/19 07:16:08;;;;;;;;;;;;;;;16.65;61.70;101266.53;5093908;28;20107;-36
2022/06/19 07:18:33;;;;;;;7.45;1.40;;;;;;;16.45;65.15;101274.56;5092644;28;19994;-36
2022/06/19 07:20:59;;;;;;;;;;;;;;;16.64;61.90;101275.81;5092204;28;20048;-36
2022/06/19 07:23:24;;;;;;;6.87;1.63;;;;;;;16.47;63.80;101286.03;5093035;28;19912;-36
2022/06/19 07:25:49;;;;;;;5.75;1.50;;;;;;;16.45;65.48;101318.25;5092990;28;20262;-36
2022/06/19 07:28:15;;;;;;;;;;;;;;;16.53;62.90;101336.88;5093517;28;20028;-37
2022/06/19 07:30:42;;;;;;;7.07;1.52;;;;;;;16.23;66.13;101310.91;5092808;28;19912;-37
2022/06/19 07:33:07;;;;;;;7.03;1.50;;;;;;;16.18;67.77;101291.75;5092699;28;20484;-36
2022/06/19 07:35:33;;;;;;;;;;;;;;;16.30;65.89;101247.97;5093848;28;20024;-35
2022/06/19 07:37:58;;;;;;;7.90;1.73;;;;;;;15.79;71.04;101208.44;5092441;28;20269;-36
2022/06/19 07:40:23;;;;;;;;;;;;;;;15.92;68.39;101218.94;5093210;28;20479;-36
2022/06/19 07:42:49;;;;;;;9.00;2.13;;;;;;;15.67;73.11;101187.63;5092560;28;19912;-36
2022/06/19 07:45:15;;;;;;;;;;;;;;;15.71;71.44;101125.19;5093291;28;20111;-36
2022/06/19 07:50:26;;;;;;;7.20;1.95;;;;;;;15.09;75.90;101107.38;5096695;28;20093;-36
2022/06/19 07:52:52;;;;;;;6.05;1.60;;;;;;;15.22;76.87;101121.66;5096021;28;20035;-35
2022/06/19 07:55:19;;;;;;;;;;;;;;;15.30;75.55;101097.50;5095998;28;20024;-36
2022/06/19 07:57:45;;;;;;;6.97;1.80;;;;;;;15.10;78.65;101103.56;5095900;28;19959;-36
2022/06/19 08:00:16;;;;;;;;;;;;;;;15.30;74.49;101102.97;5096360;28;20028;-36
2022/06/19 08:02:42;;;;;;;8.75;1.92;;;;;;;15.32;79.29;101154.47;5095715;28;19920;-38
2022/06/19 08:05:11;;;;;;;10.07;2.20;;;;;;;15.28;79.48;101210.56;5096319;28;20034;-35
2022/06/19 08:07:37;;;;;;;7.13;2.00;;;;;;;15.33;78.67;101251.50;5096001;28;20042;-35
2022/06/19 08:10:03;;;;;;;;;;;;;;;15.49;75.86;101242.44;5096110;28;20032;-35
2022/06/19 08:12:28;;;;;;;9.13;2.50;;;;;;;15.39;78.99;101212.31;5095673;28;20360;-35
2022/06/19 08:14:53;;;;;;;9.40;2.13;;;;;;;15.34;79.83;101210.38;5095642;28;20024;-35
2022/06/19 08:17:19;;;;;;;8.67;2.13;;;;;;;15.50;80.35;101205.09;5095426;28;20625;-36
2022/06/19 08:19:44;;;;;;;6.60;1.70;;;;;;;15.38;79.19;101207.97;5095542;28;20736;-35
2022/06/19 08:22:10;;;;;;;8.13;2.38;;;;;;;15.37;81.25;101203.56;5093905;28;20031;-35
2022/06/19 08:24:35;;;;;;;;;;;;;;;15.49;78.60;101168.03;5095953;28;20028;-35
2022/06/19 08:27:04;;;;;;;10.23;2.37;;;;;;;15.21;81.97;101202.56;5095700;28;19974;-36
2022/06/19 08:29:29;;;;;;;8.05;2.25;;;;;;;15.18;83.58;101233.06;5095351;28;20024;-36
2022/06/19 08:31:54;;;;;;;;;;;;;;;15.38;80.25;101207.97;5095455;28;20093;-36
2022/06/19 08:34:20;;;;;;;9.03;2.50;;;;;;;15.45;85.26;101170.44;5095370;28;19962;-35
2022/06/19 08:36:45;;;;;;;;;;;;;;;15.62;82.79;101192.16;5095999;28;20032;-36
2022/06/19 08:39:14;;;;;;;9.43;2.47;;;;;;;15.54;85.72;101193.44;5095035;28;19931;-36
2022/06/19 08:41:57;;;;;;;9.02;2.35;;;;;;;15.65;86.16;101176.13;5095029;28;20746;-36
2022/06/19 08:44:41;;;;;;;7.93;1.90;;;;;;;15.60;87.08;101150.69;5095199;28;20024;-36
2022/06/19 08:47:21;;;;;;;9.57;2.65;;;;;;;15.70;86.61;101146.19;5095528;28;20115;-36
2022/06/19 08:49:58;;;;;;;8.90;2.15;;;;;;;15.77;87.38;101126.91;5095181;28;20035;-36
2022/06/19 08:52:38;;;;;;;7.22;2.30;;;;;;;15.74;87.69;101097.44;5095199;28;20040;-36
2022/06/19 08:55:26;;;;;;;7.18;2.00;;;;;;;15.59;86.29;101098.09;5095347;28;20423;-36
2022/06/19 08:58:10;;;;;;;7.07;2.10;;;;;;;15.48;86.07;101103.69;5094454;28;20515;-36
2022/06/19 09:00:49;;;;;;;6.93;2.28;;;;;;;15.48;85.93;101090.91;5094706;28;20470;-36
2022/06/19 09:03:14;;;;;;;9.32;2.17;;;;;;;15.51;85.78;101093.09;5094654;28;20557;-36
2022/06/19 09:05:47;;;;;;;;;;;;;;;15.67;84.58;101081.28;5095533;28;20028;-36
2022/06/19 09:08:49;;;;;;;14.20;2.45;;;;;;;15.96;86.79;101079.09;5095062;28;20257;-36
2022/06/19 09:11:41;;;;;;;9.30;2.00;;;;;;;15.87;87.66;101093.47;5094014;28;20567;-36
2022/06/19 09:14:20;;;;;;;7.57;2.30;;;;;;;15.77;85.04;101107.00;5094752;28;20074;-36
2022/06/19 09:16:52;;;;;;;10.02;2.25;;;;;;;15.91;85.94;101098.13;5094266;28;20456;-37
2022/06/19 09:19:28;;;;;;;10.45;2.08;;;;;;;16.06;83.77;101110.25;5094649;28;20107;-36
2022/06/19 09:21:59;;;;;;;8.63;2.63;;;;;;;16.51;84.34;101145.22;5093845;28;20476;-36
2022/06/19 09:24:42;;;;;;;6.97;1.80;;;;;;;16.50;82.93;101170.88;5094497;28;20028;-36
2022/06/19 09:27:10;;;;;;;9.10;2.05;;;;;;;16.46;80.60;101195.13;5094325;28;20024;-36
2022/06/19 09:29:38;;;;;;;6.43;2.08;;;;;;;16.39;79.16;101207.34;5094008;28;20038;-36
2022/06/19 09:32:36;;;;;;;9.45;2.30;;;;;;;16.58;78.72;101216.78;5094339;28;20027;-36
2022/06/19 09:35:20;;;;;;;8.73;2.08;;;;;;;16.63;78.66;101235.09;5093529;28;20071;-36
2022/06/19 09:37:58;;;;;;;9.00;2.28;;;;;;;16.64;78.44;101220.38;5093880;28;20032;-36
2022/06/19 09:40:28;;;;;;;7.65;2.15;;;;;;;16.71;73.47;101210.91;5094469;28;20028;-36
2022/06/19 09:43:08;;;;;;;5.75;1.65;;;;;;;16.84;75.68;101201.44;5093638;28;20103;-37
2022/06/19 09:45:42;;;;;;;6.50;1.90;;;;;;;17.01;74.01;101203.97;5094089;28;20038;-37
2022/06/19 09:48:23;;;;;;;6.97;1.75;;;;;;;17.27;72.36;101179.50;5093756;28;20123;-37
2022/06/19 09:50:50;;;;;;;6.18;2.00;;;;;;;17.19;70.64;101162.53;5094207;28;20346;-37
2022/06/19 09:53:34;;;;;;;5.28;1.65;;;;;;;17.38;69.18;101151.94;5093515;28;20059;-36
2022/06/19 09:56:15;;;;;;;4.72;1.50;;;;;;;17.71;70.46;101142.47;5093988;28;20024;-37
2022/06/19 09:58:51;;;;;;;4.60;1.55;;;;;;;17.79;66.25;101137.56;5094272;28;20135;-36
2022/06/19 10:01:16;;;;;;;4.87;1.50;;;;;;;17.98;66.89;101136.75;5093775;28;20028;-37
2022/06/19 10:03:44;;;;;;;;;;;;;;;18.26;68.52;101137.31;5093572;28;20432;-36
2022/06/19 10:06:35;;;;;;;5.43;1.52;;;;;;;18.16;67.59;101121.72;5094158;28;20382;-36
2022/06/19 10:09:31;;;;;;;5.53;1.60;;;;;;;18.00;65.93;101117.31;5092273;28;20050;-36
2022/06/19 10:11:59;;;;;;;4.50;1.70;;;;;;;17.80;64.09;101118.13;5091265;28;20036;-36
2022/06/19 10:14:32;;;;;;;5.32;1.55;;;;;;;17.94;65.37;101121.97;5093387;28;20032;-36
2022/06/19 10:17:19;;;;;;;5.93;1.50;;;;;;;18.24;65.50;101106.63;5093574;28;20054;-37
2022/06/19 10:19:50;;;;;;;;;;;;;;;18.56;64.68;101089.88;5093765;28;20066;-37
2022/06/19 10:22:34;;;;;;;5.75;1.58;;;;;;;18.32;63.64;101075.97;5093571;28;19912;-37
2022/06/19 10:25:24;;;;;;;4.93;1.48;;;;;;;18.63;62.13;101071.22;5093765;28;20023;-37
2022/06/19 10:27:52;;;;;;;5.03;1.60;;;;;;;18.54;59.91;101075.63;5093170;28;20024;-37
2022/06/19 10:30:48;;;;;;;5.68;1.33;;;;;;;18.62;62.07;101075.06;5093794;28;20089;-37
2022/06/19 10:33:36;;;;;;;5.25;1.27;;;;;;;18.71;61.01;101058.91;5093256;28;20058;-37
2022/06/19 10:36:34;;;;;;;4.07;1.23;;;;;;;18.71;60.63;101067.94;5093248;28;20102;-37
2022/06/19 10:39:12;;;;;;;5.05;1.40;;;;;;;18.77;58.53;101072.28;5070543;28;20045;-37
2022/06/19 10:42:01;;;;;;;7.03;1.70;;;;;;;18.99;60.33;101082.09;5070618;28;20408;-36
2022/06/19 10:44:37;;;;;;;3.60;1.30;;;;;;;19.22;57.36;101089.59;5070903;28;20572;-37
2022/06/19 10:47:14;;;;;;;3.72;1.10;;;;;;;19.32;58.94;101074.22;5053745;28;20029;-37
2022/06/19 10:50:13;;;;;;;4.45;1.13;;;;;;;19.47;59.24;101063.13;5070345;28;20040;-37
2022/06/19 10:53:06;;;;;;;4.60;1.42;;;;;;;19.68;58.32;101067.41;5070617;28;20031;-37
2022/06/19 10:55:49;;;;;;;3.67;1.15;;;;;;;19.70;57.39;101070.69;5070614;28;20131;-37
2022/06/19 10:58:19;;;;;;;5.72;1.55;;;;;;;19.58;56.92;101085.84;5070194;28;20044;-36
2022/06/19 11:00:50;;;;;;;6.75;2.20;;;;;;;19.52;57.60;101104.22;5070185;28;20134;-37
2022/06/19 11:06:50;;;;;;;4.97;1.55;;;;;;;19.61;57.57;101124.50;5051466;28;20048;-37
2022/06/19 11:09:20;;;;;;;4.00;1.33;;;;;;;19.47;56.15;101146.25;5050309;28;20061;-37
2022/06/19 11:11:48;;;;;;;3.47;1.10;;;;;;;19.48;56.09;101131.44;5050284;28;20048;-37
2022/06/19 11:14:36;;;;;;;3.05;1.00;;;;;;;19.73;57.45;101140.63;5051541;28;20148;-37
2022/06/19 11:17:06;;;;;;;3.65;1.00;;;;;;;19.71;56.09;101140.91;5052819;28;20116;-37
2022/06/19 11:19:40;;;;;;;4.50;1.52;;;;;;;19.72;57.81;101128.03;5052400;28;20036;-37
2022/06/19 11:22:26;;;;;;;4.43;1.55;;;;;;;19.74;56.20;101145.81;5054146;28;20036;-37
2022/06/19 11:24:53;;;;;;;3.25;0.93;;;;;;;19.76;56.94;101137.28;5056326;28;20047;-37
2022/06/19 11:27:23;;;;;;;4.05;1.10;;;;;;;19.98;56.79;101164.31;5057007;28;20373;-37
2022/06/19 11:29:52;;;;;;;4.10;1.23;;;;;;;19.77;56.16;101178.19;5056652;28;20028;-37
2022/06/19 11:32:20;;;;;;;4.63;1.67;;;;;;;20.04;56.35;101176.91;5056812;28;20386;-36
2022/06/19 11:35:07;;;;;;;3.85;1.40;;;;;;;19.84;56.09;101166.88;5056195;28;20028;-37
2022/06/19 11:37:48;;;;;;;4.43;1.20;;;;;;;19.95;57.63;101176.69;5055864;28;20052;-37
2022/06/19 11:40:15;;;;;;;6.72;1.80;;;;;;;19.77;57.29;101167.22;5055031;28;20020;-37
2022/06/19 11:42:58;;;;;;;3.58;1.40;;;;;;;20.02;58.69;101168.94;5056301;28;20021;-37
2022/06/19 11:45:33;;;;;;;6.13;1.95;;;;;;;19.96;58.39;101177.50;5056151;28;20540;-37
2022/06/19 11:48:00;;;;;;;5.07;1.65;;;;;;;20.12;59.27;101164.50;5055928;28;20136;-37
2022/06/19 11:50:32;;;;;;;5.10;1.90;;;;;;;20.14;60.23;101159.53;5056084;28;20086;-37
2022/06/19 11:53:05;;;;;;;7.05;1.70;;;;;;;20.56;60.33;101164.38;5056138;28;20072;-37
2022/06/19 11:55:37;;;;;;;5.68;1.80;;;;;;;20.72;59.70;101174.09;5055741;28;20025;-37
2022/06/19 11:58:38;;;;;;;7.63;2.00;;;;;;;20.94;59.07;101189.28;5056548;28;20045;-37